createdAt,value
2018-02-23T00:01:38.804Z,21.11
2018-02-23T00:04:08.414Z,21.13
2018-02-23T00:06:35.032Z,21.09
2018-02-23T00:09:01.591Z,21.13
2018-02-23T00:11:28.245Z,21.11
2018-02-23T00:13:54.838Z,21.09
2018-02-23T00:16:21.412Z,21.11
2018-02-23T00:18:48.015Z,21.10
2018-02-23T00:21:14.577Z,21.11
2018-02-23T02:11:02.530Z,20.96
2018-02-23T02:13:29.138Z,20.92
2018-02-23T02:15:55.700Z,20.94
2018-02-23T02:18:22.343Z,20.94
2018-02-23T02:20:48.959Z,20.95
2018-02-23T02:23:15.521Z,20.94
2018-02-23T02:25:42.091Z,20.92
2018-02-23T02:28:08.657Z,20.91
2018-02-23T02:30:35.306Z,20.91
2018-02-23T02:33:01.920Z,21.00
2018-02-23T02:35:28.567Z,20.94
2018-02-23T02:37:55.169Z,21.25
2018-02-23T02:40:21.788Z,21.39
2018-02-23T02:42:48.336Z,21.47
2018-02-23T02:45:14.941Z,21.34
2018-02-23T02:47:41.538Z,21.23
2018-02-23T02:50:08.147Z,21.20
2018-02-23T02:52:34.710Z,21.14
2018-02-23T02:55:01.328Z,21.07
2018-02-23T02:57:27.970Z,21.09
2018-02-23T02:59:54.649Z,21.09
2018-02-23T03:02:21.286Z,21.06
2018-02-23T03:04:47.885Z,21.05
2018-02-23T03:07:14.517Z,21.04
2018-02-23T03:09:41.129Z,20.99
2018-02-23T03:12:07.748Z,21.06
2018-02-23T03:14:34.353Z,21.04
2018-02-23T03:17:01.064Z,21.04
2018-02-23T03:21:54.187Z,21.04
2018-02-23T03:24:20.799Z,21.03
2018-02-23T03:26:47.399Z,21.00
2018-02-23T03:29:13.965Z,21.04
2018-02-23T03:31:40.534Z,21.02
2018-02-23T03:34:07.241Z,21.04
2018-02-23T03:36:33.854Z,21.00
2018-02-23T03:39:00.426Z,21.01
2018-02-23T03:41:27.029Z,21.02
2018-02-23T03:43:53.642Z,21.03
2018-02-23T03:46:20.321Z,21.04
2018-02-23T03:48:46.890Z,21.05
2018-02-23T03:51:13.486Z,21.06
2018-02-23T03:53:40.089Z,21.08
2018-02-23T03:56:06.691Z,21.07
2018-02-23T03:58:33.293Z,21.05
2018-02-23T04:00:59.940Z,21.06
2018-02-23T04:03:26.517Z,21.07
2018-02-23T04:05:53.082Z,21.02
2018-02-23T04:08:19.690Z,21.00
2018-02-23T04:10:46.270Z,21.04
2018-02-23T04:13:12.936Z,21.01
2018-02-23T04:15:39.539Z,21.77
2018-02-23T04:18:06.325Z,22.55
2018-02-23T04:20:32.964Z,23.03
2018-02-23T04:22:59.541Z,23.10
2018-02-23T04:25:26.100Z,23.14
2018-02-23T04:27:52.714Z,23.25
2018-02-23T04:30:19.294Z,23.49
2018-02-23T04:32:45.920Z,23.90
2018-02-23T04:35:12.590Z,23.38
2018-02-23T04:37:39.216Z,23.86
2018-02-23T04:40:05.893Z,23.17
2018-02-23T04:42:32.459Z,22.46
2018-02-23T04:44:59.023Z,22.12
2018-02-23T04:47:25.590Z,22.00
2018-02-23T04:49:52.199Z,21.86
2018-02-23T04:52:18.764Z,21.80
2018-02-23T04:54:45.327Z,21.82
2018-02-23T04:57:11.898Z,21.79
2018-02-23T04:59:38.516Z,21.74
2018-02-23T05:02:05.113Z,21.71
2018-02-23T05:04:31.812Z,21.72
2018-02-23T05:06:58.419Z,21.70
2018-02-23T05:09:24.976Z,21.60
2018-02-23T05:11:51.554Z,21.59
2018-02-23T05:14:18.160Z,21.75
2018-02-23T05:16:44.738Z,21.59
2018-02-23T05:19:11.345Z,21.56
2018-02-23T05:21:37.939Z,22.50
2018-02-23T05:24:04.692Z,21.92
2018-02-23T05:26:31.231Z,21.90
2018-02-23T05:28:57.896Z,21.95
2018-02-23T05:31:24.467Z,22.08
2018-02-23T05:33:51.102Z,22.24
2018-02-23T05:36:17.670Z,22.43
2018-02-23T05:38:44.233Z,22.63
2018-02-23T05:41:10.810Z,22.75
2018-02-23T05:43:37.424Z,22.77
2018-02-23T05:46:03.991Z,22.70
2018-02-23T05:48:30.557Z,22.67
2018-02-23T05:50:57.191Z,22.69
2018-02-23T05:53:23.800Z,22.68
2018-02-23T05:55:50.440Z,22.52
2018-02-23T05:58:17.004Z,22.47
2018-02-23T06:00:43.590Z,22.60
2018-02-23T06:03:10.168Z,22.66
2018-02-23T06:05:36.773Z,22.67
2018-02-23T06:08:03.329Z,22.69
2018-02-23T06:10:29.943Z,22.62
2018-02-23T06:12:56.631Z,22.61
2018-02-23T06:15:23.196Z,22.70
2018-02-23T06:17:49.766Z,22.71
2018-02-23T06:20:16.334Z,22.72
2018-02-23T06:22:42.941Z,22.71
2018-02-23T06:25:09.580Z,22.64
2018-02-23T06:27:36.180Z,22.64
2018-02-23T06:30:02.822Z,22.58
2018-02-23T06:32:29.422Z,22.49
2018-02-23T06:34:56.213Z,22.49
2018-02-23T06:37:22.778Z,22.41
2018-02-23T06:39:49.358Z,22.41
2018-02-23T06:42:15.931Z,22.32
2018-02-23T06:44:42.606Z,22.39
2018-02-23T06:47:09.187Z,22.55
2018-02-23T06:49:35.798Z,22.42
2018-02-23T06:52:02.331Z,22.48
2018-02-23T06:54:28.982Z,22.47
2018-02-23T06:56:55.568Z,22.62
2018-02-23T06:59:22.182Z,22.56
2018-02-23T07:01:48.920Z,22.67
2018-02-23T07:04:15.437Z,22.83
2018-02-23T07:06:42.045Z,22.93
2018-02-23T07:09:08.758Z,22.95
2018-02-23T07:11:35.374Z,22.90
2018-02-23T07:14:01.979Z,23.02
2018-02-23T07:16:28.589Z,23.14
2018-02-23T07:18:55.165Z,24.09
2018-02-23T07:21:21.816Z,24.18
2018-02-23T07:23:48.371Z,23.88
2018-02-23T07:26:14.958Z,23.01
2018-02-23T07:28:41.589Z,22.73
2018-02-23T07:31:08.160Z,22.99
2018-02-23T07:33:34.829Z,22.94
2018-02-23T07:36:01.496Z,22.94
2018-02-23T07:38:28.160Z,23.18
2018-02-23T07:40:54.727Z,23.01
2018-02-23T07:43:21.751Z,23.05
2018-02-23T07:45:48.398Z,23.03
2018-02-23T07:48:14.957Z,22.93
2018-02-23T07:50:41.580Z,23.10
2018-02-23T07:53:08.231Z,22.82
2018-02-23T07:55:34.788Z,23.02
2018-02-23T07:58:01.353Z,23.07
2018-02-23T08:00:27.953Z,23.21
2018-02-23T08:02:54.573Z,23.25
2018-02-23T08:05:21.213Z,23.25
2018-02-23T08:07:47.839Z,23.37
2018-02-23T08:10:14.441Z,22.97
2018-02-23T08:12:41.133Z,22.86
2018-02-23T08:15:07.765Z,23.12
2018-02-23T08:17:34.376Z,23.00
2018-02-23T08:20:01.006Z,23.17
2018-02-23T08:22:27.637Z,23.06
2018-02-23T08:24:54.206Z,23.07
2018-02-23T08:27:20.857Z,23.00
2018-02-23T08:29:47.462Z,22.77
2018-02-23T08:32:14.069Z,22.91
2018-02-23T08:34:40.724Z,22.79
2018-02-23T08:37:07.281Z,22.93
2018-02-23T08:39:34.008Z,22.68
2018-02-23T08:42:00.592Z,22.71
2018-02-23T08:44:27.306Z,22.66
2018-02-23T08:46:53.884Z,22.41
2018-02-23T08:49:20.818Z,21.98
2018-02-23T08:51:47.369Z,22.05
2018-02-23T08:54:14.039Z,22.30
2018-02-23T08:56:40.899Z,22.30
2018-02-23T08:59:07.483Z,22.44
2018-02-23T09:01:34.534Z,22.48
2018-02-23T09:04:01.341Z,22.29
2018-02-23T09:06:28.114Z,22.50
2018-02-23T09:08:54.698Z,22.46
2018-02-23T09:11:21.399Z,22.61
2018-02-23T09:13:48.002Z,22.54
2018-02-23T09:16:14.729Z,22.60
2018-02-23T09:18:41.369Z,22.66
2018-02-23T09:21:07.918Z,22.55
2018-02-23T09:23:34.501Z,22.54
2018-02-23T09:26:01.100Z,22.41
2018-02-23T09:28:27.705Z,22.60
2018-02-23T09:30:54.339Z,22.48
2018-02-23T09:33:20.914Z,22.60
2018-02-23T09:35:47.485Z,22.49
2018-02-23T09:38:14.100Z,22.48
2018-02-23T09:40:40.807Z,22.35
2018-02-23T09:43:07.369Z,22.28
2018-02-23T09:45:33.976Z,22.29
2018-02-23T09:48:00.704Z,22.26
2018-02-23T09:50:27.295Z,22.46
2018-02-23T09:52:53.995Z,22.44
2018-02-23T09:55:20.548Z,22.25
2018-02-23T09:57:47.181Z,22.10
2018-02-23T10:00:13.826Z,22.27
2018-02-23T10:02:40.411Z,22.10
2018-02-23T10:05:07.029Z,22.49
2018-02-23T10:07:33.600Z,22.49
2018-02-23T10:10:00.268Z,22.42
2018-02-23T10:12:26.830Z,22.42
2018-02-23T10:14:53.474Z,22.35
2018-02-23T10:17:20.117Z,22.25
2018-02-23T10:19:46.688Z,22.07
2018-02-23T10:22:13.271Z,22.00
2018-02-23T10:24:39.872Z,21.90
2018-02-23T10:27:06.505Z,21.77
2018-02-23T10:29:33.074Z,21.83
2018-02-23T10:31:59.676Z,21.63
2018-02-23T10:34:45.229Z,21.37
2018-02-23T10:37:11.813Z,21.33
2018-02-23T10:39:38.715Z,21.30
2018-02-23T10:42:05.338Z,21.72
2018-02-23T10:44:31.906Z,21.83
2018-02-23T10:46:58.482Z,21.74
2018-02-23T10:49:25.202Z,21.78
2018-02-23T10:51:51.877Z,21.80
2018-02-23T10:54:18.437Z,21.99
2018-02-23T10:56:45.015Z,21.87
2018-02-23T10:59:11.604Z,21.79
2018-02-23T11:01:38.546Z,21.73
2018-02-23T11:04:05.154Z,21.57
2018-02-23T11:06:31.800Z,21.56
2018-02-23T11:08:58.401Z,21.45
2018-02-23T11:11:25.022Z,21.49
2018-02-23T11:13:51.592Z,21.44
2018-02-23T11:16:19.172Z,21.36
2018-02-23T11:18:45.755Z,21.27
2018-02-23T11:21:12.361Z,21.23
2018-02-23T11:23:38.975Z,21.23
2018-02-23T11:26:05.595Z,21.21
2018-02-23T11:28:32.168Z,21.06
2018-02-23T11:30:58.762Z,21.08
2018-02-23T11:33:25.406Z,21.13
2018-02-23T11:35:52.027Z,21.52
2018-02-23T11:38:18.622Z,21.54
2018-02-23T11:40:45.281Z,21.84
2018-02-23T11:43:12.011Z,21.91
2018-02-23T11:45:38.612Z,22.27
2018-02-23T11:48:05.176Z,22.27
2018-02-23T11:50:31.813Z,22.18
2018-02-23T11:52:58.516Z,22.09
2018-02-23T11:55:25.394Z,22.08
2018-02-23T11:57:52.025Z,22.05
2018-02-23T12:00:18.725Z,22.12
2018-02-23T12:02:45.350Z,22.07
2018-02-23T12:05:12.056Z,22.16
2018-02-23T12:07:38.634Z,22.15
2018-02-23T12:10:05.246Z,22.17
2018-02-23T12:12:31.861Z,22.08
2018-02-23T12:14:58.485Z,22.07
2018-02-23T12:17:25.095Z,22.13
2018-02-23T12:19:51.690Z,22.26
2018-02-23T12:22:18.311Z,22.40
2018-02-23T12:24:44.916Z,22.13
2018-02-23T12:27:11.536Z,22.31
2018-02-23T12:29:38.210Z,22.17
2018-02-23T12:32:04.901Z,22.43
2018-02-23T12:34:31.500Z,22.36
2018-02-23T12:36:58.369Z,22.34
2018-02-23T12:39:24.983Z,22.42
2018-02-23T12:41:51.553Z,22.26
2018-02-23T12:44:18.256Z,22.63
2018-02-23T12:46:45.818Z,22.71
2018-02-23T12:49:12.415Z,22.47
2018-02-23T12:51:39.006Z,22.53
2018-02-23T12:54:05.586Z,22.64
2018-02-23T12:56:32.247Z,22.50
2018-02-23T12:58:58.860Z,22.49
2018-02-23T13:01:26.443Z,22.67
2018-02-23T13:03:53.096Z,22.52
2018-02-23T13:06:19.724Z,22.37
2018-02-23T13:08:46.448Z,22.49
2018-02-23T13:11:13.038Z,22.57
2018-02-23T13:13:39.615Z,22.41
2018-02-23T13:16:06.272Z,22.36
2018-02-23T13:18:32.832Z,22.33
2018-02-23T13:20:59.581Z,22.56
2018-02-23T13:23:26.149Z,22.40
2018-02-23T13:25:52.813Z,22.50
2018-02-23T13:28:19.421Z,22.48
2018-02-23T13:30:47.020Z,22.36
2018-02-23T13:33:14.678Z,22.18
2018-02-23T13:35:41.314Z,22.41
2018-02-23T13:38:07.884Z,22.34
2018-02-23T13:40:34.447Z,22.29
2018-02-23T13:43:01.040Z,22.43
2018-02-23T13:45:27.612Z,22.43
2018-02-23T13:47:54.194Z,22.34
2018-02-23T13:50:20.787Z,22.34
2018-02-23T13:52:47.350Z,22.38
2018-02-23T13:55:13.955Z,22.33
2018-02-23T13:57:40.524Z,22.27
2018-02-23T14:00:07.154Z,22.31
2018-02-23T14:02:33.872Z,22.44
2018-02-23T14:05:00.442Z,22.37
2018-02-23T14:07:27.054Z,22.29
2018-02-23T14:09:53.708Z,22.29
2018-02-23T14:12:20.322Z,22.51
2018-02-23T14:14:46.929Z,22.41
2018-02-23T14:17:13.566Z,22.36
2018-02-23T14:19:40.434Z,22.33
2018-02-23T14:22:07.006Z,22.28
2018-02-23T14:24:33.613Z,22.13
2018-02-23T14:27:00.205Z,22.16
2018-02-23T14:29:26.789Z,22.14
2018-02-23T14:31:53.359Z,22.48
2018-02-23T14:34:19.929Z,22.19
2018-02-23T14:36:46.501Z,22.43
2018-02-23T14:39:13.087Z,22.70
2018-02-23T14:41:39.690Z,22.26
2018-02-23T14:44:06.273Z,22.38
2018-02-23T14:46:32.933Z,22.33
2018-02-23T14:48:59.587Z,22.53
2018-02-23T14:51:26.120Z,22.62
2018-02-23T14:53:52.742Z,22.66
2018-02-23T14:56:19.319Z,22.58
2018-02-23T14:58:45.900Z,22.55
2018-02-23T15:01:12.553Z,22.39
2018-02-23T15:03:39.145Z,22.20
2018-02-23T15:06:05.733Z,22.30
2018-02-23T15:08:32.364Z,22.02
2018-02-23T15:10:58.935Z,22.16
2018-02-23T15:13:25.541Z,22.21
2018-02-23T15:15:52.113Z,22.14
2018-02-23T15:18:18.692Z,22.08
2018-02-23T15:20:45.303Z,22.16
2018-02-23T15:23:11.867Z,21.94
2018-02-23T15:25:38.425Z,22.02
2018-02-23T15:28:05.122Z,22.05
2018-02-23T15:30:31.702Z,22.04
2018-02-23T15:32:58.277Z,21.87
2018-02-23T15:35:24.840Z,21.55
2018-02-23T15:37:51.537Z,21.66
2018-02-23T15:40:18.145Z,21.71
2018-02-23T15:42:44.715Z,21.73
2018-02-23T15:45:11.287Z,21.73
2018-02-23T15:47:37.918Z,21.55
2018-02-23T15:50:04.508Z,21.70
2018-02-23T15:52:31.106Z,21.63
2018-02-23T15:54:57.684Z,21.56
2018-02-23T15:57:24.252Z,21.36
2018-02-23T15:59:50.879Z,21.51
2018-02-23T16:02:17.455Z,21.55
2018-02-23T16:04:44.018Z,21.52
2018-02-23T16:07:10.621Z,21.37
2018-02-23T16:09:37.188Z,21.53
2018-02-23T16:12:03.971Z,21.56
2018-02-23T16:14:30.581Z,21.55
2018-02-23T16:16:57.135Z,21.48
2018-02-23T16:19:23.697Z,21.48
2018-02-23T16:21:50.310Z,21.39
2018-02-23T16:24:16.882Z,21.41
2018-02-23T16:26:43.549Z,21.28
2018-02-23T16:29:10.196Z,21.39
2018-02-23T16:31:36.691Z,21.33
2018-02-23T16:34:03.288Z,21.28
2018-02-23T16:36:29.860Z,21.25
2018-02-23T16:38:56.475Z,21.21
2018-02-23T16:41:23.068Z,21.20
2018-02-23T16:43:49.629Z,21.16
2018-02-23T16:46:16.198Z,21.12
2018-02-23T16:48:42.757Z,21.14
2018-02-23T16:51:09.322Z,21.09
2018-02-23T16:53:35.921Z,21.06
2018-02-23T16:56:02.529Z,21.04
2018-02-23T16:58:29.096Z,21.03
2018-02-23T17:00:55.660Z,20.98
2018-02-23T17:03:22.282Z,21.01
2018-02-23T17:05:48.863Z,20.96
2018-02-23T17:08:15.425Z,20.93
2018-02-23T17:10:41.994Z,20.93
2018-02-23T17:13:08.561Z,20.92
2018-02-23T17:15:35.132Z,20.87
2018-02-23T17:18:01.753Z,20.88
2018-02-23T17:20:28.315Z,20.83
2018-02-23T17:22:54.885Z,20.85
2018-02-23T17:25:21.464Z,20.85
2018-02-23T17:27:48.091Z,20.82
2018-02-23T17:30:14.694Z,20.76
2018-02-23T17:32:41.321Z,20.72
2018-02-23T17:35:07.953Z,20.75
2018-02-23T17:37:34.563Z,20.72
2018-02-23T17:40:01.200Z,20.77
2018-02-23T17:42:27.832Z,20.76
2018-02-23T17:44:54.393Z,20.74
2018-02-23T17:47:21.005Z,20.76
2018-02-23T17:49:47.565Z,20.75
2018-02-23T17:52:14.178Z,20.72
2018-02-23T17:54:40.737Z,20.76
2018-02-23T17:57:07.340Z,20.71
2018-02-23T17:59:33.936Z,20.74
2018-02-23T18:02:00.568Z,20.69
2018-02-23T18:04:27.136Z,20.72
2018-02-23T18:06:53.743Z,20.67
2018-02-23T18:09:20.308Z,20.70
2018-02-23T18:11:46.924Z,20.65
2018-02-23T18:14:13.485Z,20.66
2018-02-23T18:16:40.099Z,20.62
2018-02-23T18:19:06.658Z,20.62
2018-02-23T18:21:33.300Z,20.64
2018-02-23T18:23:59.881Z,20.59
2018-02-23T18:26:26.503Z,20.57
2018-02-23T18:28:53.111Z,20.58
2018-02-23T18:31:19.716Z,20.56
2018-02-23T18:33:46.288Z,20.56
2018-02-23T18:36:12.893Z,20.55
2018-02-23T18:38:39.455Z,20.54
2018-02-23T18:41:06.062Z,20.53
2018-02-23T18:43:32.682Z,20.31
2018-02-23T18:45:59.264Z,20.59
2018-02-23T18:48:25.850Z,20.76
2018-02-23T18:50:52.415Z,20.87
2018-02-23T18:53:19.027Z,20.80
2018-02-23T18:55:45.587Z,20.64
2018-02-23T18:58:12.151Z,20.56
2018-02-23T19:00:38.809Z,20.51
2018-02-23T19:03:05.370Z,20.49
2018-02-23T19:05:31.955Z,20.42
2018-02-23T19:07:58.532Z,20.40
2018-02-23T19:10:25.140Z,20.38
2018-02-23T19:12:51.731Z,20.37
2018-02-23T19:15:18.350Z,20.35
2018-02-23T19:17:44.933Z,20.28
2018-02-23T19:20:11.520Z,20.28
2018-02-23T19:22:38.127Z,20.30
2018-02-23T19:25:04.729Z,20.30
2018-02-23T19:27:31.330Z,20.24
2018-02-23T19:29:57.947Z,20.24
2018-02-23T19:32:24.534Z,20.22
2018-02-23T19:34:51.151Z,20.21
2018-02-23T19:37:17.719Z,20.21
2018-02-23T19:39:44.290Z,20.21
2018-02-23T19:42:10.898Z,20.20
2018-02-23T19:44:37.518Z,20.20
2018-02-23T19:47:04.089Z,20.16
2018-02-23T19:49:30.661Z,20.12
2018-02-23T19:51:57.242Z,20.15
2018-02-23T19:54:23.864Z,20.14
2018-02-23T19:56:50.439Z,20.13
2018-02-23T19:59:17.117Z,20.13
2018-02-23T20:01:43.674Z,20.08
2018-02-23T20:04:10.267Z,20.07
2018-02-23T20:06:36.901Z,20.07
2018-02-23T20:09:03.462Z,20.05
2018-02-23T20:11:30.025Z,20.03
2018-02-23T20:13:56.633Z,19.98
2018-02-23T20:16:23.242Z,20.00
2018-02-23T20:18:49.848Z,20.02
2018-02-23T20:21:16.441Z,20.03
2018-02-23T20:23:43.002Z,20.00
2018-02-23T20:26:09.613Z,20.00
2018-02-23T20:28:36.161Z,20.01
2018-02-23T20:31:02.729Z,19.99
2018-02-23T20:33:29.295Z,19.99
2018-02-23T20:35:55.903Z,19.98
2018-02-23T20:38:22.462Z,19.97
2018-02-23T20:40:49.098Z,19.99
2018-02-23T20:43:15.664Z,19.97
2018-02-23T20:45:42.278Z,19.95
2018-02-23T20:48:08.841Z,19.96
2018-02-23T20:50:35.408Z,19.95
2018-02-23T20:53:01.998Z,19.95
2018-02-23T20:55:28.624Z,19.90
2018-02-23T20:57:55.186Z,19.93
2018-02-23T21:00:21.800Z,19.93
2018-02-23T21:02:48.396Z,19.93
2018-02-23T21:05:14.986Z,19.95
2018-02-23T21:07:41.575Z,19.91
2018-02-23T21:10:08.137Z,19.91
2018-02-23T21:12:34.708Z,19.86
2018-02-23T21:15:01.290Z,19.88
2018-02-23T21:17:27.897Z,19.88
2018-02-23T21:19:54.476Z,19.88
2018-02-23T21:22:21.022Z,19.89
2018-02-23T21:24:47.589Z,19.88
2018-02-23T21:27:14.205Z,19.90
2018-02-23T21:29:40.781Z,19.87
2018-02-23T21:32:07.377Z,19.85
2018-02-23T21:34:33.944Z,19.87
2018-02-23T21:37:00.539Z,19.85
2018-02-23T21:39:27.152Z,19.88
2018-02-23T21:41:53.729Z,19.85
2018-02-23T21:44:20.309Z,19.86
2018-02-23T21:46:46.916Z,19.82
2018-02-23T21:49:13.484Z,19.82
2018-02-23T21:51:40.053Z,19.79
2018-02-23T21:54:06.612Z,19.80
2018-02-23T21:56:33.182Z,19.78
2018-02-23T21:58:59.751Z,19.81
2018-02-23T22:01:26.343Z,19.82
2018-02-23T22:03:52.950Z,19.77
2018-02-23T22:06:19.513Z,19.75
2018-02-23T22:08:46.189Z,19.73
2018-02-23T22:11:12.864Z,19.75
2018-02-23T22:13:39.516Z,19.75
2018-02-23T22:16:06.079Z,19.73
2018-02-23T22:18:32.646Z,19.72
2018-02-23T22:20:59.216Z,19.65
2018-02-23T22:23:25.796Z,19.68
2018-02-23T22:25:52.374Z,19.66
2018-02-23T22:28:18.973Z,19.66
2018-02-23T22:30:45.589Z,19.63
2018-02-23T22:33:12.205Z,19.63
2018-02-23T22:35:38.760Z,19.64
2018-02-23T22:38:05.320Z,19.60
2018-02-23T22:40:31.932Z,19.58
2018-02-23T22:42:58.491Z,19.59
2018-02-23T22:45:25.145Z,19.56
2018-02-23T22:47:51.755Z,19.60
2018-02-23T22:50:18.332Z,19.57
2018-02-23T22:52:44.945Z,19.56
2018-02-23T22:55:11.518Z,19.56
2018-02-23T22:57:38.083Z,19.57
2018-02-23T23:00:04.655Z,19.54
2018-02-23T23:02:31.221Z,19.55
2018-02-23T23:04:57.816Z,19.55
2018-02-23T23:07:24.430Z,19.51
2018-02-23T23:09:50.998Z,19.54
2018-02-23T23:12:17.568Z,19.51
2018-02-23T23:14:44.155Z,19.55
2018-02-23T23:17:10.746Z,19.52
2018-02-23T23:19:37.305Z,19.52
2018-02-23T23:22:03.917Z,19.52
2018-02-23T23:24:30.488Z,19.54
2018-02-23T23:26:57.063Z,19.51
2018-02-23T23:29:23.646Z,19.52
2018-02-23T23:31:50.206Z,19.50
2018-02-23T23:34:16.804Z,19.51
2018-02-23T23:36:43.377Z,19.51
2018-02-23T23:39:09.977Z,19.55
2018-02-23T23:41:36.562Z,19.52
2018-02-23T23:44:03.127Z,19.51
2018-02-23T23:46:29.807Z,19.53
2018-02-23T23:48:56.373Z,19.53
2018-02-23T23:51:22.942Z,19.55
2018-02-23T23:53:49.514Z,19.55
2018-02-23T23:56:16.088Z,19.55
2018-02-23T23:58:42.696Z,19.53
